Terminal Aerodrome Forecast
Issued by NWS

Home | Current Version | Previous Version | Text Only | Print | Product List | Glossary On
Versions: 1 2 3 4 5 6 7 8 9 10 11 12 13
000
FTUS46 KMFR 232300 RRA
TAFRBG
TAF
KRBG 232342Z 2400/2424 17010KT P6SM -SHRA SCT025 OVC060
     FM240200 VRB03KT P6SM -RA SCT020 OVC040
     FM240900 18007KT P6SM -RA OVC030
     FM241700 22008KT 5SM -RA BR OVC020=

USA.gov is the U.S. government's official web portal to all federal, state and local government web resources and services.